createdAt,value
2018-02-22T00:00:06.602Z,29.30
2018-02-22T00:02:34.070Z,28.30
2018-02-22T00:05:01.558Z,26.20
2018-02-22T00:07:29.006Z,26.17
2018-02-22T00:09:56.505Z,26.50
2018-02-22T00:12:23.973Z,26.10
2018-02-22T00:14:51.420Z,26.10
2018-02-22T00:17:18.883Z,25.93
2018-02-22T00:19:46.353Z,23.10
2018-02-22T00:22:18.713Z,25.47
2018-02-22T00:24:46.253Z,26.40
2018-02-22T00:27:13.697Z,26.85
2018-02-22T00:29:41.138Z,24.37
2018-02-22T00:32:09.217Z,25.80
2018-02-22T00:34:36.847Z,26.80
2018-02-22T00:37:04.298Z,25.53
2018-02-22T00:39:31.742Z,25.13
2018-02-22T00:41:59.198Z,24.80
2018-02-22T00:44:26.646Z,24.57
2018-02-22T00:46:54.135Z,25.00
2018-02-22T00:49:21.601Z,25.83
2018-02-22T00:51:49.157Z,25.60
2018-02-22T00:54:16.617Z,25.65
2018-02-22T00:56:44.097Z,23.90
2018-02-22T00:59:11.538Z,23.73
2018-02-22T01:01:39.346Z,25.23
2018-02-22T01:04:06.798Z,24.30
2018-02-22T01:06:34.324Z,25.20
2018-02-22T01:09:01.773Z,23.60
2018-02-22T01:11:29.220Z,23.37
2018-02-22T01:13:56.664Z,22.70
2018-02-22T01:16:24.281Z,23.30
2018-02-22T01:18:51.816Z,24.80
2018-02-22T01:21:19.378Z,23.25
2018-02-22T01:23:46.866Z,22.60
2018-02-22T01:26:14.348Z,24.68
2018-02-22T01:28:41.862Z,24.00
2018-02-22T01:31:09.486Z,22.87
2018-02-22T01:33:36.993Z,23.60
2018-02-22T01:36:04.426Z,21.43
2018-02-22T01:38:32.020Z,23.50
2018-02-22T01:40:59.489Z,22.30
2018-02-22T01:43:27.102Z,21.23
2018-02-22T01:45:54.541Z,22.30
2018-02-22T01:48:22.034Z,20.93
2018-02-22T01:50:49.628Z,20.60
2018-02-22T01:53:17.110Z,21.63
2018-02-22T01:55:44.543Z,20.07
2018-02-22T01:58:12.019Z,20.83
2018-02-22T02:00:39.885Z,20.58
2018-02-22T02:03:07.620Z,19.07
2018-02-22T02:05:35.101Z,20.30
2018-02-22T02:08:02.621Z,19.60
2018-02-22T02:10:30.045Z,19.93
2018-02-22T02:12:57.497Z,19.77
2018-02-22T02:15:24.941Z,20.30
2018-02-22T02:17:52.683Z,20.17
2018-02-22T02:20:20.202Z,20.35
2018-02-22T02:22:47.915Z,19.42
2018-02-22T02:25:16.282Z,18.27
2018-02-22T02:27:49.258Z,18.48
2018-02-22T02:30:16.842Z,19.02
2018-02-22T02:32:44.383Z,19.92
2018-02-22T02:35:11.856Z,18.23
2018-02-22T02:37:39.807Z,19.17
2018-02-22T02:40:07.354Z,18.67
2018-02-22T02:42:34.800Z,19.23
2018-02-22T02:45:02.287Z,18.77
2018-02-22T02:47:29.766Z,17.60
2018-02-22T02:49:57.203Z,18.92
2018-02-22T02:52:24.660Z,18.60
2018-02-22T02:54:52.103Z,17.80
2018-02-22T02:57:19.560Z,18.50
2018-02-22T02:59:47.017Z,19.07
2018-02-22T03:02:14.556Z,18.10
2018-02-22T03:04:42.027Z,17.70
2018-02-22T03:07:09.977Z,17.90
2018-02-22T03:09:37.414Z,17.87
2018-02-22T03:12:04.904Z,17.15
2018-02-22T03:14:32.341Z,18.10
2018-02-22T03:17:00.058Z,17.27
2018-02-22T03:19:27.521Z,17.37
2018-02-22T03:21:55.034Z,19.33
2018-02-22T03:24:22.499Z,17.58
2018-02-22T03:26:50.065Z,17.63
2018-02-22T03:29:17.554Z,16.23
2018-02-22T03:31:45.082Z,17.77
2018-02-22T03:34:12.549Z,17.50
2018-02-22T03:36:40.100Z,18.20
2018-02-22T03:39:08.028Z,16.40
2018-02-22T03:41:35.481Z,16.13
2018-02-22T03:44:02.941Z,17.07
2018-02-22T03:46:30.581Z,15.30
2018-02-22T03:48:58.033Z,15.57
2018-02-22T03:51:25.469Z,17.60
2018-02-22T03:53:52.921Z,15.97
2018-02-22T03:56:20.368Z,15.17
2018-02-22T03:58:47.853Z,16.03
2018-02-22T04:01:15.314Z,16.87
2018-02-22T04:03:42.801Z,16.07
2018-02-22T04:06:10.313Z,15.00
2018-02-22T04:08:37.778Z,15.30
2018-02-22T04:11:05.567Z,14.00
2018-02-22T04:13:33.039Z,13.83
2018-02-22T04:16:00.494Z,14.23
2018-02-22T04:18:27.945Z,15.57
2018-02-22T04:20:55.410Z,15.30
2018-02-22T04:23:22.867Z,15.27
2018-02-22T04:25:50.329Z,15.07
2018-02-22T04:28:18.092Z,14.77
2018-02-22T04:30:45.530Z,14.33
2018-02-22T04:33:13.002Z,13.50
2018-02-22T04:35:40.442Z,14.30
2018-02-22T04:38:07.885Z,14.13
2018-02-22T04:40:35.321Z,14.40
2018-02-22T04:43:02.777Z,14.60
2018-02-22T04:45:30.221Z,14.77
2018-02-22T04:47:57.680Z,15.27
2018-02-22T04:50:25.186Z,13.90
2018-02-22T04:52:52.605Z,13.67
2018-02-22T04:55:20.088Z,13.25
2018-02-22T04:57:47.551Z,14.47
2018-02-22T05:00:14.989Z,13.48
2018-02-22T05:02:42.467Z,14.43
2018-02-22T05:05:10.445Z,14.17
2018-02-22T05:07:37.920Z,13.93
2018-02-22T05:10:05.345Z,13.27
2018-02-22T05:12:32.803Z,15.00
2018-02-22T05:15:00.243Z,13.53
2018-02-22T05:17:27.702Z,14.43
2018-02-22T05:19:55.186Z,13.83
2018-02-22T05:22:22.643Z,13.23
2018-02-22T05:24:50.092Z,14.30
2018-02-22T05:27:17.549Z,13.90
2018-02-22T05:29:45.003Z,13.07
2018-02-22T05:32:12.494Z,14.38
2018-02-22T05:34:40.666Z,13.67
2018-02-22T05:37:08.126Z,14.00
2018-02-22T05:39:35.598Z,14.77
2018-02-22T05:42:03.065Z,13.40
2018-02-22T05:44:30.529Z,14.63
2018-02-22T05:46:57.976Z,14.80
2018-02-22T05:49:25.434Z,15.63
2018-02-22T05:51:52.882Z,13.67
2018-02-22T05:54:20.375Z,13.65
2018-02-22T05:56:47.801Z,15.00
2018-02-22T05:59:15.278Z,14.32
2018-02-22T06:01:42.729Z,14.20
2018-02-22T06:04:10.716Z,13.70
2018-02-22T06:06:38.155Z,14.43
2018-02-22T06:09:05.597Z,13.95
2018-02-22T06:11:33.061Z,13.63
2018-02-22T06:14:00.549Z,14.67
2018-02-22T06:16:28.020Z,13.77
2018-02-22T06:18:55.457Z,14.40
2018-02-22T06:21:22.915Z,13.47
2018-02-22T06:23:50.387Z,21.53
2018-02-22T06:26:17.904Z,13.60
2018-02-22T06:28:45.337Z,13.20
2018-02-22T06:31:12.799Z,13.07
2018-02-22T06:33:40.973Z,14.98
2018-02-22T06:36:08.419Z,14.77
2018-02-22T06:38:35.913Z,14.87
2018-02-22T06:41:03.337Z,14.20
2018-02-22T06:43:30.777Z,12.87
2018-02-22T06:45:58.202Z,13.40
2018-02-22T06:48:25.663Z,14.65
2018-02-22T06:50:53.387Z,12.03
2018-02-22T06:53:20.869Z,14.32
2018-02-22T06:55:48.408Z,14.50
2018-02-22T06:58:15.882Z,13.00
2018-02-22T07:00:43.342Z,12.13
2018-02-22T07:03:11.247Z,12.67
2018-02-22T07:05:38.695Z,12.63
2018-02-22T07:08:06.163Z,11.40
2018-02-22T07:10:33.671Z,11.93
2018-02-22T07:13:01.113Z,11.20
2018-02-22T07:15:28.609Z,11.47
2018-02-22T07:17:56.074Z,12.90
2018-02-22T07:20:23.525Z,12.30
2018-02-22T07:22:51.052Z,12.40
2018-02-22T07:25:18.639Z,11.63
2018-02-22T07:27:46.068Z,11.60
2018-02-22T07:30:13.542Z,11.50
2018-02-22T07:32:41.154Z,11.73
2018-02-22T07:35:08.586Z,10.93
2018-02-22T07:37:36.048Z,11.80
2018-02-22T07:40:03.492Z,11.80
2018-02-22T07:42:30.963Z,11.23
2018-02-22T07:44:58.405Z,12.07
2018-02-22T07:47:25.947Z,10.70
2018-02-22T07:49:53.381Z,12.80
2018-02-22T07:52:21.902Z,11.00
2018-02-22T07:54:49.345Z,10.45
2018-02-22T07:57:16.825Z,11.00
2018-02-22T07:59:44.354Z,11.43
2018-02-22T08:02:12.098Z,10.40
2018-02-22T08:04:39.529Z,10.33
2018-02-22T08:07:07.002Z,10.70
2018-02-22T08:09:34.431Z,10.50
2018-02-22T08:12:01.879Z,9.60
2018-02-22T08:14:29.336Z,10.87
2018-02-22T08:16:56.762Z,9.97
2018-02-22T08:19:24.220Z,10.80
2018-02-22T08:21:51.661Z,10.47
2018-02-22T08:24:19.123Z,10.67
2018-02-22T08:26:46.568Z,10.57
2018-02-22T08:29:14.029Z,8.97
2018-02-22T08:31:41.470Z,10.60
2018-02-22T08:34:09.796Z,10.80
2018-02-22T08:36:46.218Z,9.70
2018-02-22T08:39:13.724Z,10.43
2018-02-22T08:41:41.469Z,9.75
2018-02-22T08:44:08.928Z,10.07
2018-02-22T08:46:36.417Z,9.65
2018-02-22T08:49:03.866Z,9.73
2018-02-22T08:51:31.311Z,8.10
2018-02-22T08:53:58.781Z,8.55
2018-02-22T08:56:26.229Z,8.83
2018-02-22T08:58:53.706Z,7.50
2018-02-22T09:01:21.153Z,7.97
2018-02-22T09:03:48.601Z,8.53
2018-02-22T09:06:16.131Z,8.18
2018-02-22T09:08:43.649Z,7.63
2018-02-22T09:11:11.707Z,7.85
2018-02-22T09:13:39.141Z,7.83
2018-02-22T09:16:06.577Z,7.85
2018-02-22T09:18:34.009Z,7.90
2018-02-22T09:21:01.436Z,8.60
2018-02-22T09:23:28.872Z,8.23
2018-02-22T09:25:56.310Z,7.90
2018-02-22T09:28:23.757Z,8.20
2018-02-22T09:30:51.419Z,7.20
2018-02-22T09:33:18.890Z,6.60
2018-02-22T09:35:46.330Z,6.12
2018-02-22T09:38:13.762Z,6.30
2018-02-22T09:40:41.688Z,4.90
2018-02-22T09:43:09.120Z,5.20
2018-02-22T09:45:36.570Z,4.63
2018-02-22T09:48:04.006Z,4.50
2018-02-22T09:50:31.429Z,4.87
2018-02-22T09:52:58.854Z,4.45
2018-02-22T09:55:26.366Z,4.60
2018-02-22T09:57:53.780Z,4.50
2018-02-22T10:00:21.239Z,4.00
2018-02-22T10:02:48.692Z,4.50
2018-02-22T10:05:16.126Z,3.80
2018-02-22T10:07:43.551Z,4.20
2018-02-22T10:10:11.841Z,3.50
2018-02-22T10:12:39.661Z,4.57
2018-02-22T10:15:07.105Z,3.97
2018-02-22T10:17:34.532Z,14.60
2018-02-22T10:20:02.022Z,4.33
2018-02-22T10:22:29.426Z,4.10
2018-02-22T10:24:56.886Z,3.90
2018-02-22T10:27:24.338Z,4.47
2018-02-22T10:29:51.800Z,4.20
2018-02-22T10:32:19.252Z,3.80
2018-02-22T10:34:51.293Z,4.28
2018-02-22T10:37:27.848Z,4.56
2018-02-22T10:39:55.471Z,4.47
2018-02-22T10:42:22.951Z,4.68
2018-02-22T10:44:50.446Z,5.27
2018-02-22T10:47:17.874Z,5.00
2018-02-22T10:49:45.307Z,4.20
2018-02-22T10:52:13.451Z,4.47
2018-02-22T10:54:40.900Z,4.80
2018-02-22T10:57:08.463Z,4.80
2018-02-22T10:59:35.917Z,4.70
2018-02-22T11:02:09.009Z,4.50
2018-02-22T11:04:36.511Z,4.73
2018-02-22T11:07:03.953Z,4.33
2018-02-22T11:09:31.407Z,4.20
2018-02-22T11:11:58.883Z,4.55
2018-02-22T11:14:26.946Z,4.95
2018-02-22T11:20:02.428Z,4.20
2018-02-22T11:22:30.057Z,4.60
2018-02-22T11:24:57.447Z,4.50
2018-02-22T11:27:24.943Z,5.30
2018-02-22T11:29:52.334Z,4.50
2018-02-22T11:32:19.788Z,4.72
2018-02-22T11:34:47.177Z,4.65
2018-02-22T11:37:14.542Z,5.70
2018-02-22T11:39:42.265Z,4.95
2018-02-22T11:42:09.626Z,4.90
2018-02-22T11:44:37.004Z,5.10
2018-02-22T11:47:04.366Z,5.37
2018-02-22T11:49:31.795Z,4.90
2018-02-22T11:51:59.357Z,4.77
2018-02-22T11:54:26.764Z,5.30
2018-02-22T11:56:54.130Z,4.70
2018-02-22T11:59:21.525Z,4.97
2018-02-22T12:01:48.900Z,4.70
2018-02-22T12:04:16.267Z,4.93
2018-02-22T12:06:43.693Z,5.23
2018-02-22T12:09:11.105Z,4.83
2018-02-22T12:11:38.495Z,5.33
2018-02-22T12:14:05.880Z,5.00
2018-02-22T12:16:33.248Z,5.90
2018-02-22T12:19:00.625Z,5.30
2018-02-22T12:21:28.014Z,4.72
2018-02-22T12:23:55.435Z,4.50
2018-02-22T12:26:22.772Z,5.03
2018-02-22T12:28:50.154Z,4.60
2018-02-22T12:31:17.560Z,5.12
2018-02-22T12:33:45.026Z,5.07
2018-02-22T12:36:12.482Z,4.60
2018-02-22T12:38:39.858Z,5.23
2018-02-22T12:41:07.237Z,4.67
2018-02-22T12:43:34.636Z,4.70
2018-02-22T12:46:02.027Z,5.13
2018-02-22T12:48:29.501Z,4.90
2018-02-22T12:50:56.893Z,4.20
2018-02-22T12:53:29.357Z,5.20
2018-02-22T12:56:00.796Z,4.72
2018-02-22T12:58:29.800Z,5.43
2018-02-22T13:00:57.206Z,5.53
2018-02-22T13:03:24.579Z,6.10
2018-02-22T13:05:51.992Z,7.50
2018-02-22T13:08:19.368Z,5.27
2018-02-22T13:10:46.747Z,4.87
2018-02-22T13:13:14.142Z,5.17
2018-02-22T13:15:41.558Z,4.27
2018-02-22T13:18:08.950Z,4.00
2018-02-22T13:20:36.346Z,4.70
2018-02-22T13:23:03.755Z,4.73
2018-02-22T13:25:31.142Z,4.73
2018-02-22T13:27:58.520Z,5.50
2018-02-22T13:30:26.905Z,6.93
2018-02-22T13:33:09.177Z,7.23
2018-02-22T13:35:44.301Z,6.67
2018-02-22T13:38:25.074Z,7.50
2018-02-22T13:40:52.594Z,7.23
2018-02-22T13:43:19.982Z,5.70
2018-02-22T13:45:47.378Z,6.55
2018-02-22T13:48:14.798Z,6.47
2018-02-22T13:50:54.467Z,6.62
2018-02-22T13:53:21.848Z,5.50
2018-02-22T13:55:49.226Z,5.80
2018-02-22T13:58:16.607Z,5.83
2018-02-22T14:00:55.864Z,5.73
2018-02-22T14:03:23.251Z,5.97
2018-02-22T14:05:50.642Z,5.37
2018-02-22T14:08:29.707Z,5.87
2018-02-22T14:10:57.147Z,5.33
2018-02-22T14:13:24.501Z,5.28
2018-02-22T14:15:51.877Z,6.47
2018-02-22T14:18:19.275Z,6.05
2018-02-22T14:20:46.642Z,6.13
2018-02-22T14:23:14.022Z,5.10
2018-02-22T14:25:41.397Z,6.37
2018-02-22T14:28:08.797Z,6.17
2018-02-22T14:30:36.180Z,5.60
2018-02-22T14:33:03.579Z,5.80
2018-02-22T14:35:31.008Z,5.15
2018-02-22T14:37:58.391Z,4.93
2018-02-22T14:40:25.797Z,6.03
2018-02-22T14:42:57.807Z,5.30
2018-02-22T14:45:30.929Z,6.18
2018-02-22T14:47:58.695Z,6.07
2018-02-22T14:50:26.082Z,5.50
2018-02-22T14:52:53.486Z,5.60
2018-02-22T14:55:20.856Z,5.67
2018-02-22T14:57:48.222Z,5.47
2018-02-22T15:00:15.608Z,5.03
2018-02-22T15:02:43.210Z,5.20
2018-02-22T15:05:10.590Z,5.97
2018-02-22T15:07:37.966Z,5.10
2018-02-22T15:10:05.354Z,5.80
2018-02-22T15:12:32.755Z,5.57
2018-02-22T15:15:00.111Z,5.68
2018-02-22T15:17:27.489Z,5.57
2018-02-22T15:19:54.860Z,5.43
2018-02-22T15:22:22.253Z,5.70
2018-02-22T15:24:49.620Z,5.07
2018-02-22T15:27:17.020Z,6.70
2018-02-22T15:29:44.395Z,6.70
2018-02-22T15:32:11.778Z,6.30
2018-02-22T15:34:39.209Z,6.20
2018-02-22T15:37:06.585Z,6.97
2018-02-22T15:39:34.102Z,5.50
2018-02-22T15:42:01.624Z,4.85
2018-02-22T15:44:29.005Z,5.10
2018-02-22T15:46:56.389Z,5.93
2018-02-22T15:49:23.837Z,5.22
2018-02-22T15:51:51.231Z,5.12
2018-02-22T15:54:18.702Z,4.90
2018-02-22T15:56:46.065Z,4.80
2018-02-22T15:59:13.510Z,5.10
2018-02-22T16:01:40.948Z,5.37
2018-02-22T16:04:08.307Z,5.43
2018-02-22T16:06:35.677Z,5.23
2018-02-22T16:09:03.049Z,5.47
2018-02-22T16:11:30.486Z,5.90
2018-02-22T16:13:57.862Z,5.37
2018-02-22T16:16:25.239Z,6.12
2018-02-22T16:18:52.607Z,5.97
2018-02-22T16:21:20.010Z,5.90
2018-02-22T16:23:47.377Z,6.47
2018-02-22T16:26:14.752Z,5.43
2018-02-22T16:28:42.157Z,6.30
2018-02-22T16:31:09.502Z,5.77
2018-02-22T16:33:36.953Z,5.77
2018-02-22T16:36:04.401Z,5.97
2018-02-22T16:38:31.769Z,5.60
2018-02-22T16:40:59.171Z,6.23
2018-02-22T16:43:26.567Z,6.00
2018-02-22T16:45:53.964Z,6.50
2018-02-22T16:48:21.359Z,5.70
2018-02-22T16:50:48.733Z,5.77
2018-02-22T16:53:16.115Z,5.67
2018-02-22T16:55:43.831Z,6.70
2018-02-22T16:58:11.190Z,6.53
2018-02-22T17:00:38.609Z,7.23
2018-02-22T17:03:05.990Z,6.23
2018-02-22T17:05:33.370Z,6.47
2018-02-22T17:08:00.784Z,6.10
2018-02-22T17:10:28.162Z,6.17
2018-02-22T17:12:55.533Z,7.03
2018-02-22T17:15:23.047Z,6.60
2018-02-22T17:17:50.411Z,5.93
2018-02-22T17:20:18.614Z,7.00
2018-02-22T17:22:46.067Z,7.40
2018-02-22T17:25:13.844Z,7.40
2018-02-22T17:27:46.889Z,7.80
2018-02-22T17:30:19.723Z,7.90
2018-02-22T17:32:47.202Z,7.10
2018-02-22T17:48:34.346Z,7.13
2018-02-22T17:51:01.762Z,8.40
2018-02-22T17:53:29.161Z,7.30
2018-02-22T17:55:56.539Z,8.50
2018-02-22T17:58:23.992Z,9.23
2018-02-22T18:00:51.306Z,8.93
2018-02-22T18:03:18.689Z,8.35
2018-02-22T18:05:46.130Z,7.10
2018-02-22T18:08:14.064Z,9.00
2018-02-22T18:10:47.580Z,8.77
2018-02-22T18:13:23.138Z,11.52
2018-02-22T18:15:50.689Z,9.00
2018-02-22T18:18:18.116Z,9.70
2018-02-22T18:20:45.501Z,9.40
2018-02-22T18:23:12.882Z,8.80
2018-02-22T18:25:41.314Z,8.40
2018-02-22T18:28:08.692Z,7.87
2018-02-22T18:30:36.088Z,8.40
2018-02-22T18:33:03.614Z,8.40
2018-02-22T18:35:31.054Z,8.37
2018-02-22T18:37:59.368Z,8.18
2018-02-22T18:40:32.686Z,9.37
2018-02-22T18:43:00.195Z,9.43
2018-02-22T18:45:27.922Z,8.90
2018-02-22T18:47:55.316Z,8.70
2018-02-22T18:50:23.066Z,9.30
2018-02-22T18:52:50.638Z,9.68
2018-02-22T18:55:18.067Z,8.67
2018-02-22T18:57:45.442Z,9.60
2018-02-22T19:00:13.031Z,9.43
2018-02-22T19:02:40.463Z,9.60
2018-02-22T19:05:07.893Z,8.10
2018-02-22T19:07:35.583Z,8.23
2018-02-22T19:10:03.020Z,8.60
2018-02-22T19:12:30.516Z,8.73
2018-02-22T19:14:58.001Z,9.73
2018-02-22T19:17:25.443Z,9.00
2018-02-22T19:19:52.850Z,8.73
2018-02-22T19:22:20.343Z,9.20
2018-02-22T19:24:47.722Z,9.43
2018-02-22T19:27:15.218Z,9.33
2018-02-22T19:29:42.724Z,9.07
2018-02-22T19:32:10.167Z,10.27
2018-02-22T19:34:37.535Z,8.67
2018-02-22T19:37:05.190Z,8.73
2018-02-22T19:39:32.614Z,9.60
2018-02-22T19:42:00.021Z,9.40
2018-02-22T19:44:27.520Z,8.97
2018-02-22T19:46:54.909Z,8.40
2018-02-22T19:49:22.408Z,9.30
2018-02-22T19:51:49.802Z,9.07
2018-02-22T19:54:17.349Z,9.27
2018-02-22T19:56:44.716Z,9.33
2018-02-22T19:59:12.090Z,9.37
2018-02-22T20:01:39.453Z,8.63
2018-02-22T20:04:06.882Z,9.10
2018-02-22T20:06:34.361Z,9.67
2018-02-22T20:09:02.026Z,9.57
2018-02-22T20:11:29.527Z,10.10
2018-02-22T20:13:56.920Z,9.30
2018-02-22T20:16:24.406Z,9.07
2018-02-22T20:18:52.026Z,9.00
2018-02-22T20:21:19.412Z,9.60
2018-02-22T20:23:46.834Z,8.43
2018-02-22T20:26:14.911Z,9.17
2018-02-22T20:28:42.362Z,8.80
2018-02-22T20:31:09.754Z,8.80
2018-02-22T20:33:37.167Z,9.80
2018-02-22T20:36:04.559Z,8.70
2018-02-22T20:38:31.927Z,8.50
2018-02-22T20:40:59.376Z,8.57
2018-02-22T20:43:26.769Z,9.26
2018-02-22T20:45:54.294Z,9.37
2018-02-22T20:48:21.721Z,8.10
2018-02-22T20:50:49.141Z,8.63
2018-02-22T20:53:17.014Z,9.40
2018-02-22T20:55:45.450Z,8.73
2018-02-22T20:58:12.986Z,9.10
2018-02-22T21:00:40.459Z,8.60
2018-02-22T21:03:07.820Z,9.48
2018-02-22T21:05:35.205Z,9.27
2018-02-22T21:08:02.609Z,9.20
2018-02-22T21:10:30.168Z,8.97
2018-02-22T21:12:59.345Z,8.87
2018-02-22T21:15:26.844Z,9.35
2018-02-22T21:17:54.204Z,9.17
2018-02-22T21:20:21.651Z,9.65
2018-02-22T21:22:49.080Z,10.03
2018-02-22T21:25:17.235Z,10.07
2018-02-22T21:27:44.637Z,10.47
2018-02-22T21:30:12.022Z,9.20
2018-02-22T21:32:40.220Z,9.93
2018-02-22T21:35:07.571Z,9.83
2018-02-22T21:37:37.587Z,9.90
2018-02-22T21:40:04.987Z,10.00
2018-02-22T21:42:32.395Z,8.77
2018-02-22T21:44:59.797Z,9.20
2018-02-22T21:47:27.161Z,8.73
2018-02-22T21:49:54.542Z,9.57
2018-02-22T21:52:21.945Z,9.63
2018-02-22T21:54:49.538Z,11.10
2018-02-22T21:57:16.895Z,9.10
2018-02-22T21:59:47.310Z,8.77
2018-02-22T22:02:14.673Z,9.05
2018-02-22T22:04:42.148Z,9.25
2018-02-22T22:07:09.626Z,9.53
2018-02-22T22:09:37.011Z,9.70
2018-02-22T22:12:04.386Z,8.97
2018-02-22T22:14:31.763Z,8.97
2018-02-22T22:16:59.192Z,9.02
2018-02-22T22:19:26.583Z,9.90
2018-02-22T22:21:53.955Z,9.30
2018-02-22T22:24:21.336Z,8.70
2018-02-22T22:26:48.756Z,8.40
2018-02-22T22:29:16.236Z,9.98
2018-02-22T22:31:43.604Z,8.97
2018-02-22T22:34:10.985Z,12.00
2018-02-22T22:36:38.365Z,9.10
2018-02-22T22:39:05.761Z,8.80
2018-02-22T22:41:33.169Z,10.48
2018-02-22T22:44:00.618Z,9.37
2018-02-22T22:46:28.037Z,9.90
2018-02-22T22:48:55.409Z,9.67
2018-02-22T22:51:23.313Z,9.07
2018-02-22T22:53:50.742Z,9.47
2018-02-22T22:56:18.220Z,9.40
2018-02-22T22:58:45.590Z,9.83
2018-02-22T23:01:12.987Z,9.03
2018-02-22T23:03:40.505Z,9.98
2018-02-22T23:06:07.918Z,9.67
2018-02-22T23:08:35.350Z,9.40
2018-02-22T23:11:02.729Z,9.80
2018-02-22T23:13:30.146Z,9.43
2018-02-22T23:15:57.571Z,10.00
2018-02-22T23:18:25.032Z,8.97
2018-02-22T23:20:53.111Z,8.88
2018-02-22T23:23:20.533Z,8.77
2018-02-22T23:25:49.011Z,9.43
2018-02-22T23:28:16.514Z,8.57
2018-02-22T23:30:43.901Z,8.80
2018-02-22T23:33:12.089Z,9.03
2018-02-22T23:35:39.457Z,10.13
2018-02-22T23:38:06.890Z,9.17
2018-02-22T23:40:40.049Z,10.63
2018-02-22T23:43:09.499Z,8.45
2018-02-22T23:45:36.892Z,8.97
2018-02-22T23:48:04.299Z,8.53
2018-02-22T23:50:31.807Z,9.47
2018-02-22T23:52:59.190Z,8.73
2018-02-22T23:55:26.569Z,8.40
2018-02-22T23:57:54.076Z,8.80
